createdAt,value
2017-02-24T00:00:51.619Z,993.04
2017-02-24T00:02:01.434Z,993.11
2017-02-24T00:03:10.521Z,993.19
2017-02-24T00:04:20.376Z,993.24
2017-02-24T00:05:30.189Z,993.33
2017-02-24T00:06:39.250Z,993.38
2017-02-24T00:07:48.704Z,993.43
2017-02-24T00:08:57.773Z,993.51
2017-02-24T00:10:07.228Z,993.55
2017-02-24T00:11:16.665Z,994.08
2017-02-24T00:12:26.166Z,994.14
2017-02-24T00:13:36.404Z,994.23
2017-02-24T00:14:46.241Z,994.28
2017-02-24T00:15:54.911Z,994.31
2017-02-24T00:17:03.967Z,994.4
2017-02-24T00:18:13.039Z,994.51
2017-02-24T00:19:22.102Z,994.6
2017-02-24T00:20:31.539Z,994.57
2017-02-24T00:21:40.984Z,994.59
2017-02-24T00:22:50.451Z,994.65
2017-02-24T00:23:59.130Z,994.7
2017-02-24T00:25:08.589Z,994.74
2017-02-24T00:26:18.041Z,994.8
2017-02-24T00:27:27.102Z,994.8
2017-02-24T00:28:36.543Z,994.86
2017-02-24T00:29:46.422Z,994.89
2017-02-24T00:30:55.867Z,995.32
2017-02-24T00:32:04.949Z,995.36
2017-02-24T00:33:14.385Z,995.37
2017-02-24T00:34:23.843Z,995.42
2017-02-24T00:35:33.671Z,995.5
2017-02-24T00:36:43.120Z,995.48
2017-02-24T00:37:52.217Z,995.51
2017-02-24T00:39:02.440Z,995.48
2017-02-24T00:40:12.298Z,995.5
2017-02-24T00:41:21.783Z,995.48
2017-02-24T00:42:31.242Z,995.92
2017-02-24T00:43:40.295Z,995.93
2017-02-24T00:44:49.369Z,995.87
2017-02-24T00:45:58.052Z,995.8
2017-02-24T00:47:07.544Z,995.67
2017-02-24T00:48:16.979Z,996.11
2017-02-24T00:49:27.206Z,996
2017-02-24T00:50:36.266Z,995.98
2017-02-24T00:51:44.949Z,995.91
2017-02-24T00:52:54.019Z,995.88
2017-02-24T00:54:03.093Z,996.34
2017-02-24T00:55:12.936Z,996.28
2017-02-24T00:56:22.771Z,996.32
2017-02-24T00:57:32.227Z,996.32
2017-02-24T00:58:41.353Z,996.38
2017-02-24T00:59:51.171Z,996.49
2017-02-24T01:01:01.404Z,996.51
2017-02-24T01:02:10.866Z,996.6
2017-02-24T01:03:20.342Z,996.59
2017-02-24T01:04:29.428Z,996.63
2017-02-24T01:05:39.255Z,996.62
2017-02-24T01:06:49.468Z,996.61
2017-02-24T01:07:58.919Z,996.57
2017-02-24T01:09:08.353Z,996.63
2017-02-24T01:10:18.211Z,996.6
2017-02-24T01:11:27.313Z,996.98
2017-02-24T01:12:36.750Z,996.97
2017-02-24T01:13:46.195Z,996.99
2017-02-24T01:14:55.635Z,996.96
2017-02-24T01:16:05.093Z,997.02
2017-02-24T01:17:13.781Z,996.99
2017-02-24T01:18:23.978Z,996.98
2017-02-24T01:19:33.050Z,997
2017-02-24T01:20:42.125Z,997.13
2017-02-24T01:21:51.568Z,997.23
2017-02-24T01:23:01.400Z,997.28
2017-02-24T01:24:10.455Z,997.42
2017-02-24T01:25:20.666Z,997.45
2017-02-24T01:26:29.735Z,997.49
2017-02-24T01:27:39.183Z,997.5
2017-02-24T01:28:47.893Z,997.61
2017-02-24T01:29:57.724Z,997.69
2017-02-24T01:31:06.801Z,997.73
2017-02-24T01:32:15.852Z,997.88
2017-02-24T01:33:24.546Z,997.93
2017-02-24T01:34:34.384Z,998.06
2017-02-24T01:35:43.455Z,998.12
2017-02-24T01:36:52.902Z,998.18
2017-02-24T01:38:02.368Z,998.17
2017-02-24T01:39:11.427Z,998.13
2017-02-24T01:40:20.495Z,998.11
2017-02-24T01:41:29.564Z,998.05
2017-02-24T01:42:38.652Z,997.89
2017-02-24T01:43:48.100Z,997.66
2017-02-24T01:44:56.788Z,998.03
2017-02-24T01:46:07.018Z,997.85
2017-02-24T01:47:16.482Z,998.16
2017-02-24T01:48:26.308Z,998.12
2017-02-24T01:49:35.370Z,998.07
2017-02-24T01:50:44.039Z,998.02
2017-02-24T01:51:53.864Z,997.97
2017-02-24T01:53:02.916Z,997.91
2017-02-24T01:54:12.781Z,998.29
2017-02-24T01:55:21.873Z,998.26
2017-02-24T01:56:31.690Z,998.18
2017-02-24T01:57:41.522Z,998.1
2017-02-24T01:58:51.348Z,998.48
2017-02-24T02:00:00.794Z,998.35
2017-02-24T02:01:10.610Z,998.32
2017-02-24T02:02:20.094Z,998.26
2017-02-24T02:03:29.599Z,998.2
2017-02-24T02:04:38.691Z,998.16
2017-02-24T02:05:48.904Z,998.62
2017-02-24T02:06:58.356Z,998.63
2017-02-24T02:08:08.261Z,998.58
2017-02-24T02:09:17.753Z,998.59
2017-02-24T02:10:27.227Z,998.62
2017-02-24T02:11:36.709Z,998.78
2017-02-24T02:12:46.571Z,998.99
2017-02-24T02:13:55.656Z,999.15
2017-02-24T02:15:04.751Z,999.22
2017-02-24T02:16:14.998Z,999.17
2017-02-24T02:17:23.710Z,999.19
2017-02-24T02:18:32.407Z,999.17
2017-02-24T02:19:41.886Z,999.23
2017-02-24T02:20:51.744Z,999.18
2017-02-24T02:22:00.443Z,999.19
2017-02-24T02:23:10.694Z,999.22
2017-02-24T02:24:20.178Z,999.24
2017-02-24T02:25:29.645Z,999.24
2017-02-24T02:26:39.119Z,999.34
2017-02-24T02:27:48.986Z,999.49
2017-02-24T02:28:58.076Z,999.6
2017-02-24T02:30:06.793Z,999.69
2017-02-24T02:31:16.263Z,999.68
2017-02-24T02:32:25.341Z,999.73
2017-02-24T02:33:34.851Z,999.74
2017-02-24T02:34:44.712Z,999.86
2017-02-24T02:35:54.184Z,999.85
2017-02-24T02:37:04.803Z,999.88
2017-02-24T02:38:13.519Z,999.81
2017-02-24T02:39:22.622Z,999.72
2017-02-24T02:40:32.478Z,999.45
2017-02-24T02:41:41.937Z,999.2
2017-02-24T02:42:51.458Z,998.96
2017-02-24T02:44:00.917Z,999.1
2017-02-24T02:45:09.607Z,998.87
2017-02-24T02:46:19.468Z,999.23
2017-02-24T02:47:29.712Z,999.07
2017-02-24T02:48:39.574Z,999.47
2017-02-24T02:49:49.061Z,999.4
2017-02-24T02:50:58.163Z,999.41
2017-02-24T02:52:08.026Z,999.5
2017-02-24T02:53:17.880Z,999.59
2017-02-24T02:54:27.795Z,999.71
2017-02-24T02:55:37.259Z,999.83
2017-02-24T02:56:46.365Z,1000.03
2017-02-24T02:57:56.239Z,1000.24
2017-02-24T02:59:05.333Z,1000.35
2017-02-24T03:00:14.432Z,1000.4
2017-02-24T03:01:23.907Z,1000.48
2017-02-24T03:02:33.013Z,1000.57
2017-02-24T03:03:42.498Z,1000.62
2017-02-24T03:04:51.210Z,1000.77
2017-02-24T03:06:00.319Z,1000.77
2017-02-24T03:07:10.176Z,1000.8
2017-02-24T03:08:19.281Z,1000.76
2017-02-24T03:09:29.544Z,1000.86
2017-02-24T03:10:39.032Z,1000.98
2017-02-24T03:11:48.652Z,1001.09
2017-02-24T03:12:58.131Z,1001.13
2017-02-24T03:14:07.602Z,1001.19
2017-02-24T03:15:17.069Z,1001.26
2017-02-24T03:16:26.932Z,1001.35
2017-02-24T03:17:36.472Z,1001.35
2017-02-24T03:18:45.936Z,1001.41
2017-02-24T03:19:54.642Z,1001.43
2017-02-24T03:21:04.510Z,1001.46
2017-02-24T03:22:13.985Z,1001.48
2017-02-24T03:23:23.069Z,1001.53
2017-02-24T03:24:32.570Z,1001.59
2017-02-24T03:25:41.657Z,1001.65
2017-02-24T03:26:50.740Z,1001.61
2017-02-24T03:27:59.482Z,1001.65
2017-02-24T03:29:09.023Z,1001.55
2017-02-24T03:30:17.764Z,1001.5
2017-02-24T03:31:27.283Z,1001.44
2017-02-24T03:32:35.981Z,1001.39
2017-02-24T03:33:45.450Z,1001.36
2017-02-24T03:34:54.916Z,1001.3
2017-02-24T03:36:04.778Z,1001.24
2017-02-24T03:37:13.881Z,1001.2
2017-02-24T03:38:23.372Z,1001.06
2017-02-24T03:39:32.879Z,1000.79
2017-02-24T03:40:41.699Z,1000.54
2017-02-24T03:41:51.555Z,1000.26
2017-02-24T03:43:00.715Z,1000.41
2017-02-24T03:44:10.966Z,1000.58
2017-02-24T03:45:20.128Z,1000.33
2017-02-24T03:46:29.775Z,1000.53
2017-02-24T03:47:38.962Z,1000.39
2017-02-24T03:48:48.860Z,1000.62
2017-02-24T03:49:59.118Z,1000.39
2017-02-24T03:51:09.395Z,1000.63
2017-02-24T03:52:18.486Z,1000.49
2017-02-24T03:53:27.958Z,1000.76
2017-02-24T03:54:37.434Z,1000.55
2017-02-24T03:55:46.987Z,1000.42
2017-02-24T03:56:56.441Z,1000.66
2017-02-24T03:58:05.964Z,1000.53
2017-02-24T03:59:15.096Z,1000.43
2017-02-24T04:00:25.366Z,1000.78
2017-02-24T04:01:34.844Z,1000.67
2017-02-24T04:02:43.951Z,1000.61
2017-02-24T04:03:54.193Z,1000.62
2017-02-24T04:05:03.665Z,1000.97
2017-02-24T04:06:13.141Z,1000.84
2017-02-24T04:07:22.236Z,1000.78
2017-02-24T04:08:31.725Z,1000.68
2017-02-24T04:09:41.199Z,1001.12
2017-02-24T04:10:50.677Z,1001.13
2017-02-24T04:12:00.151Z,1001.03
2017-02-24T04:13:10.003Z,1001
2017-02-24T04:14:19.465Z,1001
2017-02-24T04:15:29.327Z,1000.94
2017-02-24T04:16:38.813Z,1001.04
2017-02-24T04:17:47.933Z,1000.9
2017-02-24T04:18:57.033Z,1001.33
2017-02-24T04:20:06.521Z,1001.31
2017-02-24T04:21:15.993Z,1001.38
2017-02-24T04:22:24.712Z,1001.39
2017-02-24T04:23:34.198Z,1001.49
2017-02-24T04:24:43.658Z,1001.47
2017-02-24T04:25:53.515Z,1001.42
2017-02-24T04:27:03.391Z,1001.38
2017-02-24T04:28:12.854Z,1001.45
2017-02-24T04:29:22.320Z,1001.43
2017-02-24T04:30:31.410Z,1001.55
2017-02-24T04:31:40.491Z,1001.55
2017-02-24T04:32:50.336Z,1001.75
2017-02-24T04:33:59.462Z,1001.89
2017-02-24T04:35:08.960Z,1001.99
2017-02-24T04:36:18.053Z,1001.89
2017-02-24T04:37:27.513Z,1001.73
2017-02-24T04:38:36.604Z,1001.92
2017-02-24T04:39:46.092Z,1002.13
2017-02-24T04:40:55.562Z,1002.27
2017-02-24T04:42:05.857Z,1002.3
2017-02-24T04:43:15.722Z,1002.27
2017-02-24T04:44:24.832Z,1002.15
2017-02-24T04:45:34.307Z,1002.24
2017-02-24T04:46:44.171Z,1002.25
2017-02-24T04:47:52.877Z,1002.16
2017-02-24T04:49:02.342Z,1002.15
2017-02-24T04:50:11.442Z,1002.14
2017-02-24T04:51:20.915Z,1002.17
2017-02-24T04:52:30.037Z,1002.15
2017-02-24T04:53:39.528Z,1002.2
2017-02-24T04:54:48.250Z,1002.22
2017-02-24T04:55:57.729Z,1002.41
2017-02-24T04:57:07.581Z,1002.47
2017-02-24T04:58:17.065Z,1002.53
2017-02-24T04:59:27.309Z,1002.61
2017-02-24T05:00:37.289Z,1002.63
2017-02-24T05:01:47.136Z,1002.62
2017-02-24T05:02:56.625Z,1002.53
2017-02-24T05:04:06.533Z,1002.35
2017-02-24T05:05:16.408Z,1002.21
2017-02-24T05:06:25.486Z,1002.51
2017-02-24T05:07:35.006Z,1002.29
2017-02-24T05:08:45.257Z,1002.35
2017-02-24T05:09:53.964Z,1002.32
2017-02-24T05:11:03.814Z,1002.29
2017-02-24T05:12:13.667Z,1002.24
2017-02-24T05:13:22.793Z,1002.21
2017-02-24T05:14:31.515Z,1002.18
2017-02-24T05:15:41.390Z,1002.23
2017-02-24T05:16:50.873Z,1002.72
2017-02-24T05:17:59.964Z,1002.71
2017-02-24T05:19:09.439Z,1002.79
2017-02-24T05:20:19.295Z,1002.79
2017-02-24T05:21:28.388Z,1002.86
2017-02-24T05:22:37.483Z,1002.85
2017-02-24T05:23:46.971Z,1002.86
2017-02-24T05:24:57.223Z,1002.88
2017-02-24T05:26:05.925Z,1002.88
2017-02-24T05:27:16.162Z,1002.81
2017-02-24T05:28:26.015Z,1002.73
2017-02-24T05:29:35.878Z,1002.84
2017-02-24T05:30:46.142Z,1002.8
2017-02-24T05:31:55.620Z,1002.77
2017-02-24T05:33:04.717Z,1002.74
2017-02-24T05:34:14.202Z,1002.9
2017-02-24T05:35:24.070Z,1002.95
2017-02-24T05:36:33.556Z,1003.01
2017-02-24T05:37:42.656Z,1003.09
2017-02-24T05:38:51.381Z,1003.14
2017-02-24T05:40:00.883Z,1003.25
2017-02-24T05:41:09.974Z,1003.25
2017-02-24T05:42:19.838Z,1003.3
2017-02-24T05:43:28.930Z,1003.38
2017-02-24T05:44:37.621Z,1003.45
2017-02-24T05:45:46.715Z,1003.4
2017-02-24T05:46:55.812Z,1003.36
2017-02-24T05:48:04.911Z,1003.28
2017-02-24T05:49:14.372Z,1003.26
2017-02-24T05:50:23.473Z,1003.23
2017-02-24T05:51:32.963Z,1003.15
2017-02-24T05:52:42.438Z,1003.57
2017-02-24T05:53:51.996Z,1003.56
2017-02-24T05:55:00.693Z,1003.55
2017-02-24T05:56:10.162Z,1003.48
2017-02-24T05:57:19.626Z,1003.46
2017-02-24T05:58:29.488Z,1003.44
2017-02-24T05:59:38.575Z,1003.37
2017-02-24T06:00:47.681Z,1003.88
2017-02-24T06:01:57.181Z,1003.87
2017-02-24T06:03:06.307Z,1003.82
2017-02-24T06:04:15.005Z,1003.83
2017-02-24T06:05:24.087Z,1003.77
2017-02-24T06:06:33.575Z,1003.7
2017-02-24T06:07:43.451Z,1003.67
2017-02-24T06:08:53.318Z,1003.66
2017-02-24T06:10:02.805Z,1003.59
2017-02-24T06:11:11.944Z,1003.61
2017-02-24T06:12:20.652Z,1003.75
2017-02-24T06:13:29.746Z,1003.85
2017-02-24T06:14:39.218Z,1003.87
2017-02-24T06:15:48.702Z,1003.86
2017-02-24T06:16:58.595Z,1003.8
2017-02-24T06:18:08.841Z,1003.79
2017-02-24T06:19:18.319Z,1003.85
2017-02-24T06:20:27.029Z,1003.84
2017-02-24T06:21:36.504Z,1004.3
2017-02-24T06:22:47.198Z,1004.27
2017-02-24T06:23:56.294Z,1004.19
2017-02-24T06:25:05.777Z,1004.18
2017-02-24T06:26:16.025Z,1004.15
2017-02-24T06:27:25.502Z,1004.12
2017-02-24T06:28:34.211Z,1004.08
2017-02-24T06:29:43.332Z,1004.51
2017-02-24T06:30:53.194Z,1004.4
2017-02-24T06:32:02.674Z,1004.43
2017-02-24T06:33:12.966Z,1004.49
2017-02-24T06:34:22.078Z,1004.56
2017-02-24T06:35:31.549Z,1004.59
2017-02-24T06:36:40.258Z,1004.54
2017-02-24T06:37:49.342Z,1004.43
2017-02-24T06:38:59.211Z,1004.37
2017-02-24T06:40:09.066Z,1004.45
2017-02-24T06:41:19.709Z,1004.51
2017-02-24T06:42:29.197Z,1004.5
2017-02-24T06:43:38.668Z,1004.52
2017-02-24T06:44:48.523Z,1004.48
2017-02-24T06:45:58.437Z,1004.43
2017-02-24T06:47:07.904Z,1004.97
2017-02-24T06:48:17.752Z,1004.98
2017-02-24T06:49:27.990Z,1005.02
2017-02-24T06:50:37.860Z,1005.03
2017-02-24T06:51:47.339Z,1005.17
2017-02-24T06:52:57.609Z,1005.08
2017-02-24T06:54:07.095Z,1005.1
2017-02-24T06:55:16.958Z,1005.1
2017-02-24T06:56:26.061Z,1005.15
2017-02-24T06:57:35.159Z,1005.2
2017-02-24T06:58:45.032Z,1005.22
2017-02-24T06:59:54.504Z,1005.35
2017-02-24T07:01:04.443Z,1005.34
2017-02-24T07:02:14.305Z,1005.33
2017-02-24T07:03:23.781Z,1005.37
2017-02-24T07:04:33.269Z,1005.29
2017-02-24T07:05:42.370Z,1005.25
2017-02-24T07:06:52.239Z,1005.2
2017-02-24T07:08:02.510Z,1005.21
2017-02-24T07:09:12.749Z,1005.22
2017-02-24T07:10:22.223Z,1005.21
2017-02-24T07:11:31.311Z,1005.29
2017-02-24T07:12:41.171Z,1005.41
2017-02-24T07:13:50.658Z,1005.49
2017-02-24T07:15:00.560Z,1005.53
2017-02-24T07:16:09.661Z,1005.55
2017-02-24T07:17:18.803Z,1005.66
2017-02-24T07:18:29.046Z,1005.74
2017-02-24T07:19:38.912Z,1005.86
2017-02-24T07:20:48.378Z,1005.9
2017-02-24T07:21:58.248Z,1006.04
2017-02-24T07:23:07.332Z,1006.11
2017-02-24T07:24:16.807Z,1006.28
2017-02-24T07:25:26.288Z,1006.37
2017-02-24T07:26:35.394Z,1006.48
2017-02-24T07:27:44.895Z,1006.64
2017-02-24T07:28:53.988Z,1006.78
2017-02-24T07:30:04.238Z,1006.93
2017-02-24T07:31:13.348Z,1007.06
2017-02-24T07:32:22.510Z,1007.16
2017-02-24T07:33:31.597Z,1007.28
2017-02-24T07:34:41.054Z,1007.41
2017-02-24T07:35:51.301Z,1007.55
2017-02-24T07:37:00.394Z,1007.66
2017-02-24T07:38:09.113Z,1007.76
2017-02-24T07:39:17.820Z,1007.84
2017-02-24T07:40:27.309Z,1007.99
2017-02-24T07:41:36.776Z,1008.05
2017-02-24T07:42:45.887Z,1008.21
2017-02-24T07:43:55.381Z,1008.2
2017-02-24T07:45:05.229Z,1008.41
2017-02-24T07:46:14.317Z,1008.43
2017-02-24T07:47:24.550Z,1008.62
2017-02-24T07:48:33.635Z,1008.86
2017-02-24T07:49:42.396Z,1008.9
2017-02-24T07:50:51.114Z,1009.14
2017-02-24T07:52:00.216Z,1009.33
2017-02-24T07:53:09.719Z,1009.59
2017-02-24T07:54:18.808Z,1009.7
2017-02-24T07:55:28.289Z,1009.7
2017-02-24T07:56:37.380Z,1009.75
2017-02-24T07:57:47.633Z,1009.69
2017-02-24T07:58:57.115Z,1009.72
2017-02-24T08:00:06.980Z,1009.83
2017-02-24T08:01:16.085Z,1009.69
2017-02-24T08:02:25.988Z,1009.64
2017-02-24T08:03:36.622Z,1009.65
2017-02-24T08:04:46.476Z,1009.65
2017-02-24T08:05:56.333Z,1009.54
2017-02-24T08:07:06.243Z,1009.42
2017-02-24T08:08:15.727Z,1009.29
2017-02-24T08:09:25.190Z,1009.24
2017-02-24T08:10:35.429Z,1009.2
2017-02-24T08:11:45.309Z,1009.13
2017-02-24T08:12:54.410Z,1009.15
2017-02-24T08:14:03.501Z,1009.14
2017-02-24T08:15:12.990Z,1009.18
2017-02-24T08:16:22.863Z,1009.28
2017-02-24T08:17:31.961Z,1009.36
2017-02-24T08:18:40.724Z,1009.58
2017-02-24T08:19:50.576Z,1009.71
2017-02-24T08:21:00.460Z,1009.83
2017-02-24T08:22:09.939Z,1010.01
2017-02-24T08:23:19.820Z,1010.17
2017-02-24T08:24:29.288Z,1010.08
2017-02-24T08:25:38.007Z,1010.27
2017-02-24T08:26:46.731Z,1010.13
2017-02-24T08:27:56.201Z,1010.25
2017-02-24T08:29:05.308Z,1010.32
2017-02-24T08:30:14.783Z,1010.34
2017-02-24T08:31:24.277Z,1010.15
2017-02-24T08:32:33.001Z,1010.24
2017-02-24T08:33:41.724Z,1010.13
2017-02-24T08:34:51.591Z,1010.31
2017-02-24T08:36:01.078Z,1010.45
2017-02-24T08:37:10.989Z,1010.32
2017-02-24T08:38:20.876Z,1010.47
2017-02-24T08:39:29.608Z,1010.5
2017-02-24T08:40:39.454Z,1010.22
2017-02-24T08:41:49.384Z,1010.34
2017-02-24T08:42:58.934Z,1010.37
2017-02-24T08:44:08.018Z,1010.47
2017-02-24T08:45:17.165Z,1010.48
2017-02-24T08:46:26.249Z,1010.51
2017-02-24T08:47:35.740Z,1010.14
2017-02-24T08:48:45.204Z,1010.23
2017-02-24T08:49:53.902Z,1010.25
2017-02-24T08:51:03.379Z,1010.41
2017-02-24T08:52:12.867Z,1010.4
2017-02-24T08:53:21.986Z,1010.03
2017-02-24T08:54:31.472Z,1010.21
2017-02-24T08:55:41.373Z,1010.33
2017-02-24T08:56:51.634Z,1010.5
2017-02-24T08:58:00.738Z,1009.82
2017-02-24T08:59:09.851Z,1010.07
2017-02-24T09:00:18.928Z,1010.32
2017-02-24T09:01:28.395Z,1009.42
2017-02-24T09:02:37.512Z,1009.68
2017-02-24T09:03:47.774Z,1010.02
2017-02-24T09:04:56.939Z,1010.33
2017-02-24T09:06:06.027Z,1009.4
2017-02-24T09:07:15.175Z,1009.43
2017-02-24T09:08:25.044Z,1009.54
2017-02-24T09:09:34.152Z,1009.53
2017-02-24T09:10:44.031Z,1009.56
2017-02-24T09:11:54.351Z,1009.55
2017-02-24T09:13:04.356Z,1009.6
2017-02-24T09:14:13.505Z,1009.69
2017-02-24T09:15:22.989Z,1009.69
2017-02-24T09:16:32.136Z,1009.74
2017-02-24T09:17:41.234Z,1009.75
2017-02-24T09:18:50.342Z,1009.77
2017-02-24T09:19:59.824Z,1009.81
2017-02-24T09:21:09.310Z,1009.81
2017-02-24T09:22:18.418Z,1009.83
2017-02-24T09:23:28.321Z,1009.95
2017-02-24T09:24:37.402Z,1009.98
2017-02-24T09:25:47.263Z,1010.01
2017-02-24T09:26:55.981Z,1010
2017-02-24T09:28:05.534Z,1010.05
2017-02-24T09:29:15.408Z,1010.04
2017-02-24T09:30:24.884Z,1010.07
2017-02-24T09:31:34.373Z,1010.08
2017-02-24T09:32:43.458Z,1010.2
2017-02-24T09:33:52.963Z,1009.94
2017-02-24T09:35:03.241Z,1009.93
2017-02-24T09:36:12.355Z,1010.2
2017-02-24T09:37:22.223Z,1010.22
2017-02-24T09:38:31.707Z,1010.23
2017-02-24T09:39:41.965Z,1010.28
2017-02-24T09:40:51.457Z,1010.31
2017-02-24T09:42:01.347Z,1010.14
2017-02-24T09:43:11.207Z,1010.45
2017-02-24T09:44:21.056Z,1010.42
2017-02-24T09:45:31.356Z,1010.49
2017-02-24T09:46:41.615Z,1010.49
2017-02-24T09:47:51.502Z,1010.52
2017-02-24T09:49:00.976Z,1010.51
2017-02-24T09:50:10.866Z,1010.31
2017-02-24T09:51:20.381Z,1010.61
2017-02-24T09:52:30.268Z,1010.45
2017-02-24T09:53:39.753Z,1010.43
2017-02-24T09:54:49.632Z,1010.38
2017-02-24T09:55:59.500Z,1010.64
2017-02-24T09:57:08.983Z,1010.71
2017-02-24T09:58:18.091Z,1010.47
2017-02-24T09:59:27.958Z,1010.76
2017-02-24T10:00:37.824Z,1010.38
2017-02-24T10:01:48.239Z,1011.09
2017-02-24T10:02:56.963Z,1011.55
2017-02-24T10:04:06.450Z,1011.24
2017-02-24T10:05:15.934Z,1011.09
2017-02-24T10:06:25.038Z,1010.56
2017-02-24T10:07:34.555Z,1011.57
2017-02-24T10:08:44.049Z,1011.77
2017-02-24T10:09:53.938Z,1011.41
2017-02-24T10:11:03.793Z,1010.52
2017-02-24T10:12:14.072Z,1010.54
2017-02-24T10:13:23.536Z,1010.62
2017-02-24T10:14:32.285Z,1010.67
2017-02-24T10:15:41.375Z,1011.4
2017-02-24T10:16:51.645Z,1010.94
2017-02-24T10:18:00.752Z,1011.33
2017-02-24T10:19:09.855Z,1011.51
2017-02-24T10:20:19.735Z,1011.36
2017-02-24T10:21:28.847Z,1010.71
2017-02-24T10:22:39.127Z,1010.71
2017-02-24T10:23:48.231Z,1010.73
2017-02-24T10:24:58.109Z,1011.52
2017-02-24T10:26:07.605Z,1011.58
2017-02-24T10:27:17.073Z,1010.9
2017-02-24T10:28:26.934Z,1010.95
2017-02-24T10:29:36.028Z,1010.93
2017-02-24T10:30:45.903Z,1010.96
2017-02-24T10:31:55.776Z,1010.86
2017-02-24T10:33:05.251Z,1010.93
2017-02-24T10:34:14.360Z,1011.03
2017-02-24T10:35:23.856Z,1010.89
2017-02-24T10:36:33.390Z,1010.92
2017-02-24T10:37:42.525Z,1011.36
2017-02-24T10:38:51.644Z,1010.84
2017-02-24T10:40:01.508Z,1010.72
2017-02-24T10:41:11.012Z,1010.79
2017-02-24T10:42:20.494Z,1010.78
2017-02-24T10:43:29.965Z,1010.8
2017-02-24T10:44:39.442Z,1010.75
2017-02-24T10:45:48.529Z,1010.83
2017-02-24T10:46:57.620Z,1010.8
2017-02-24T10:48:07.133Z,1010.84
2017-02-24T10:49:16.237Z,1010.91
2017-02-24T10:50:24.965Z,1010.96
2017-02-24T10:51:34.076Z,1010.96
2017-02-24T10:52:43.946Z,1010.91
2017-02-24T10:53:53.417Z,1010.86
2017-02-24T10:55:03.297Z,1010.94
2017-02-24T10:56:12.400Z,1011.09
2017-02-24T10:57:21.882Z,1010.95
2017-02-24T10:58:30.980Z,1010.93
2017-02-24T10:59:40.475Z,1010.92
2017-02-24T11:00:49.613Z,1010.94
2017-02-24T11:01:59.093Z,1011.02
2017-02-24T11:03:08.950Z,1011.28
2017-02-24T11:04:18.439Z,1011.34
2017-02-24T11:05:27.540Z,1011.38
2017-02-24T11:06:36.670Z,1011.5
2017-02-24T11:07:46.180Z,1011.47
2017-02-24T11:08:56.049Z,1011.51
2017-02-24T11:10:04.816Z,1011.54
2017-02-24T11:11:14.298Z,1011.52
2017-02-24T11:12:23.852Z,1011.55
2017-02-24T11:13:33.328Z,1011.54
2017-02-24T11:14:43.215Z,1011.55
2017-02-24T11:15:51.949Z,1011.51
2017-02-24T11:17:01.817Z,1011.4
2017-02-24T11:18:11.693Z,1011.58
2017-02-24T11:19:21.958Z,1011.62
2017-02-24T11:20:31.457Z,1011.56
2017-02-24T11:21:41.714Z,1011.63
2017-02-24T11:22:50.839Z,1011.73
2017-02-24T11:24:00.721Z,1011.45
2017-02-24T11:25:10.579Z,1011.36
2017-02-24T11:26:20.068Z,1011.28
2017-02-24T11:27:29.194Z,1011.46
2017-02-24T11:28:38.283Z,1011.68
2017-02-24T11:29:47.802Z,1011.57
2017-02-24T11:30:57.290Z,1011.49
2017-02-24T11:32:06.765Z,1011.51
2017-02-24T11:33:16.640Z,1011.87
2017-02-24T11:34:26.504Z,1011.88
2017-02-24T11:35:36.412Z,1011.69
2017-02-24T11:36:45.904Z,1011.44
2017-02-24T11:37:55.761Z,1011.27
2017-02-24T11:39:04.851Z,1011.32
2017-02-24T11:40:14.720Z,1011.22
2017-02-24T11:41:23.817Z,1011.22
2017-02-24T11:42:32.515Z,1011.24
2017-02-24T11:43:41.613Z,1011.25
2017-02-24T11:44:51.481Z,1011.26
2017-02-24T11:46:00.965Z,1011.21
2017-02-24T11:47:10.500Z,1011.21
2017-02-24T11:48:20.363Z,1011.18
2017-02-24T11:49:30.611Z,1011.26
2017-02-24T11:50:39.744Z,1011.24
2017-02-24T11:51:50.089Z,1011.3
2017-02-24T11:53:00.338Z,1011.29
2017-02-24T11:54:09.418Z,1011.31
2017-02-24T11:55:18.553Z,1011.32
2017-02-24T11:56:27.656Z,1011.36
2017-02-24T11:57:37.531Z,1011.43
2017-02-24T11:58:47.013Z,1011.45
2017-02-24T11:59:56.116Z,1011.52
2017-02-24T12:01:05.198Z,1011.43
2017-02-24T12:02:15.068Z,1011.45
2017-02-24T12:03:24.539Z,1011.45
2017-02-24T12:04:33.650Z,1011.4
2017-02-24T12:05:43.133Z,1011.44
2017-02-24T12:06:53.406Z,1011.45
2017-02-24T12:08:02.889Z,1011.48
2017-02-24T12:09:12.371Z,1011.53
2017-02-24T12:10:21.515Z,1011.49
2017-02-24T12:11:30.987Z,1011.53
2017-02-24T12:12:40.477Z,1011.55
2017-02-24T12:13:49.948Z,1011.52
2017-02-24T12:14:59.037Z,1011.54
2017-02-24T12:16:08.966Z,1011.59
2017-02-24T12:17:18.441Z,1011.56
2017-02-24T12:18:28.314Z,1011.54
2017-02-24T12:19:37.827Z,1011.56
2017-02-24T12:20:47.317Z,1011.54
2017-02-24T12:21:56.815Z,1011.62
2017-02-24T12:23:05.905Z,1011.52
2017-02-24T12:24:15.394Z,1011.45
2017-02-24T12:25:24.101Z,1011.5
2017-02-24T12:26:33.582Z,1011.46
2017-02-24T12:27:43.102Z,1011.51
2017-02-24T12:28:52.190Z,1011.57
2017-02-24T12:30:01.312Z,1011.62
2017-02-24T12:31:10.436Z,1011.65
2017-02-24T12:32:19.530Z,1011.68
2017-02-24T12:33:28.635Z,1011.7
2017-02-24T12:34:38.143Z,1011.61
2017-02-24T12:35:47.625Z,1011.58
2017-02-24T12:36:57.095Z,1011.57
2017-02-24T12:38:06.575Z,1011.55
2017-02-24T12:39:16.492Z,1011.54
2017-02-24T12:40:25.993Z,1011.59
2017-02-24T12:41:35.495Z,1011.61
2017-02-24T12:42:45.337Z,1011.67
2017-02-24T12:43:54.435Z,1011.66
2017-02-24T12:45:03.199Z,1011.63
2017-02-24T12:46:13.086Z,1011.66
2017-02-24T12:47:23.365Z,1011.68
2017-02-24T12:48:32.458Z,1011.69
2017-02-24T12:49:42.335Z,1011.71
2017-02-24T12:50:51.838Z,1011.65
2017-02-24T12:52:02.073Z,1011.65
2017-02-24T12:53:10.771Z,1011.55
2017-02-24T12:54:21.006Z,1011.61
2017-02-24T12:55:30.878Z,1011.61
2017-02-24T12:56:39.960Z,1011.62
2017-02-24T12:57:49.078Z,1011.59
2017-02-24T12:58:58.192Z,1011.57
2017-02-24T13:00:08.042Z,1011.62
2017-02-24T13:01:17.519Z,1011.59
2017-02-24T13:02:26.633Z,1011.64
2017-02-24T13:03:35.731Z,1011.64
2017-02-24T13:04:45.983Z,1011.69
2017-02-24T13:05:55.522Z,1011.64
2017-02-24T13:07:04.649Z,1011.65
2017-02-24T13:08:13.738Z,1011.68
2017-02-24T13:09:22.452Z,1011.7
2017-02-24T13:10:31.167Z,1011.69
2017-02-24T13:11:40.637Z,1011.68
2017-02-24T13:12:50.128Z,1011.69
2017-02-24T13:13:59.652Z,1011.61
2017-02-24T13:15:08.743Z,1011.62
2017-02-24T13:16:18.608Z,1011.57
2017-02-24T13:17:27.758Z,1011.5
2017-02-24T13:18:37.676Z,1011.51
2017-02-24T13:19:47.548Z,1011.59
2017-02-24T13:20:57.202Z,1011.61
2017-02-24T13:22:05.941Z,1011.55
2017-02-24T13:23:15.055Z,1011.66
2017-02-24T13:24:24.932Z,1011.62
2017-02-24T13:25:34.864Z,1011.67
2017-02-24T13:26:43.983Z,1011.58
2017-02-24T13:27:53.829Z,1011.65
2017-02-24T13:29:03.326Z,1011.66
2017-02-24T13:30:13.197Z,1011.66
2017-02-24T13:31:21.911Z,1011.68
2017-02-24T13:32:31.008Z,1011.62
2017-02-24T13:33:40.538Z,1011.69
2017-02-24T13:34:50.029Z,1011.68
2017-02-24T13:35:59.519Z,1011.69
2017-02-24T13:37:09.399Z,1011.7
2017-02-24T13:38:19.252Z,1011.67
2017-02-24T13:39:28.736Z,1011.73
2017-02-24T13:40:37.853Z,1011.66
2017-02-24T13:41:46.941Z,1011.73
2017-02-24T13:42:56.847Z,1011.74
2017-02-24T13:44:05.983Z,1011.81
2017-02-24T13:45:15.486Z,1011.78
2017-02-24T13:46:24.575Z,1011.78
2017-02-24T13:47:33.657Z,1011.81
2017-02-24T13:48:42.367Z,1011.78
2017-02-24T13:49:51.844Z,1011.79
2017-02-24T13:51:02.095Z,1011.83
2017-02-24T13:52:11.566Z,1011.83
2017-02-24T13:53:21.047Z,1011.83
2017-02-24T13:54:31.291Z,1011.85
2017-02-24T13:55:40.794Z,1011.93
2017-02-24T13:56:49.909Z,1011.93
2017-02-24T13:57:59.859Z,1011.95
2017-02-24T13:59:08.945Z,1011.94
2017-02-24T14:00:18.497Z,1011.92
2017-02-24T14:01:27.988Z,1011.89
2017-02-24T14:02:37.571Z,1011.95
2017-02-24T14:03:46.790Z,1011.93
2017-02-24T14:04:56.556Z,1011.93
2017-02-24T14:06:06.164Z,1011.95
2017-02-24T14:07:14.990Z,1011.97
2017-02-24T14:08:24.878Z,1011.92